West Melbourne, Florida
Current Conditions -  °F | °C
As of 11:53 PM on Wednesday 22 Oct 2014 (Local Time) from KMLB Reporting Station
Clear Clear  
Wind Chill: 23°   Ceiling: Unl
Heat Index: 23°   Visibility: 10mi
Dew Point: 17°   Wind: 10mph
Humidity: 66%   Direction: 30°NNE
Pressure: 29.97"   Gusts: NA
Location:  28.0786°N, 80.6027°W
Report Text: KMLB 230353Z AUTO 03009KT 10SM CLR 23/17 A2997 RMK AO2 SLP148 T02330167
Loading
Personal Weather Stations






























Interactive Weather Map
Tropical Storm Tracking
New forecast layout! Learn more

10-Day Weather Forecast

Advertisements
Track Severe Weather on mobile